Time;durP1;ratioP1;P1;durP2;ratioP2;P2;SDS_P1;SDS_P2;PMS_P1;PMS_P2;Temp;Humidity;BMP_temperature;BMP_pressure;BME280_temperature;BME280_humidity;BME280_pressure;Samples;Min_cycle;Max_cycle;Signal;HPM_P1;HPM_P2
2022/04/23 00:01:20;;;;;;;10.98;5.05;;;21.70;61.60;;;;;;4946556;29;20032;-70
2022/04/23 00:03:46;;;;;;;9.27;4.78;;;21.70;61.30;;;;;;4949880;29;20032;-73
2022/04/23 00:06:12;;;;;;;12.70;4.95;;;21.70;60.50;;;;;;4951856;29;20038;-74
2022/04/23 00:08:38;;;;;;;13.30;6.03;;;21.70;61.10;;;;;;4948944;29;20380;-72
2022/04/23 00:11:03;;;;;;;16.50;8.75;;;21.70;61.00;;;;;;4949775;28;20027;-72
2022/04/23 00:13:29;;;;;;;14.88;7.55;;;21.60;60.30;;;;;;4943062;28;20055;-72
2022/04/23 00:15:55;;;;;;;28.40;7.97;;;21.70;59.30;;;;;;4942745;29;20127;-72
2022/04/23 00:18:20;;;;;;;13.45;6.30;;;21.70;59.70;;;;;;4943194;29;20027;-73
2022/04/23 00:20:46;;;;;;;11.18;6.45;;;21.70;61.00;;;;;;4937666;29;20130;-72
2022/04/23 00:23:13;;;;;;;15.77;6.35;;;21.70;60.60;;;;;;4947229;28;20075;-72
2022/04/23 00:25:39;;;;;;;10.93;5.63;;;21.70;60.00;;;;;;4951301;29;20070;-72
2022/04/23 00:28:06;;;;;;;14.85;6.25;;;21.70;59.90;;;;;;4933019;29;20082;-72
2022/04/23 00:30:33;;;;;;;13.15;5.88;;;21.70;60.90;;;;;;4933404;29;20036;-71
2022/04/23 00:33:03;;;;;;;13.38;6.13;;;21.70;61.30;;;;;;4936261;29;20122;-72
2022/04/23 00:35:29;;;;;;;10.85;5.82;;;21.70;61.60;;;;;;4937087;29;20039;-72
2022/04/23 00:37:56;;;;;;;14.02;6.05;;;21.70;60.50;;;;;;4936846;29;20055;-72
2022/04/23 00:40:24;;;;;;;14.82;6.20;;;21.70;60.80;;;;;;4945874;29;20032;-71
2022/04/23 00:42:53;;;;;;;10.82;5.85;;;21.60;60.70;;;;;;4917368;29;20038;-72
2022/04/23 00:45:20;;;;;;;13.07;5.68;;;21.60;60.70;;;;;;4951889;29;20480;-72
2022/04/23 00:47:45;;;;;;;12.00;5.68;;;21.60;60.90;;;;;;4943951;29;20023;-72
2022/04/23 00:50:12;;;;;;;13.43;6.22;;;21.60;60.90;;;;;;4954527;29;20082;-71
2022/04/23 00:52:38;;;;;;;20.33;5.40;;;21.60;60.70;;;;;;4955320;28;20090;-72
2022/04/23 00:55:05;;;;;;;12.40;5.70;;;21.60;61.00;;;;;;4948095;29;20035;-72
2022/04/23 00:57:32;;;;;;;12.70;6.20;;;21.60;60.80;;;;;;4945799;28;20035;-72
2022/04/23 01:00:00;;;;;;;13.30;5.20;;;21.60;60.90;;;;;;4952965;29;20035;-71
2022/04/23 01:02:26;;;;;;;14.05;5.28;;;21.60;61.00;;;;;;4955434;28;20019;-71
2022/04/23 01:04:53;;;;;;;11.90;5.50;;;21.60;60.90;;;;;;4955150;28;20510;-72
2022/04/23 01:07:20;;;;;;;14.13;5.63;;;21.60;61.00;;;;;;4955371;28;20027;-72
2022/04/23 01:09:47;;;;;;;9.68;5.30;;;21.60;61.00;;;;;;4953988;29;20396;-72
2022/04/23 01:12:13;;;;;;;11.38;5.30;;;21.60;60.80;;;;;;4947940;29;20059;-72
2022/04/23 01:15:06;;;;;;;13.48;6.05;;;21.60;60.80;;;;;;4946280;29;20117;-72
2022/04/23 01:17:33;;;;;;;15.25;5.75;;;21.60;60.90;;;;;;4933231;29;20020;-72
2022/04/23 01:20:13;;;;;;;12.93;5.55;;;21.60;60.70;;;;;;4951954;29;20046;-72
2022/04/23 01:22:41;;;;;;;12.95;5.35;;;21.60;61.00;;;;;;4950786;29;20023;-72
2022/04/23 01:25:10;;;;;;;10.40;5.30;;;21.60;60.80;;;;;;4953649;29;20154;-72
2022/04/23 01:27:41;;;;;;;11.02;5.25;;;21.60;60.80;;;;;;4955150;28;20023;-72
2022/04/23 01:30:12;;;;;;;11.13;5.47;;;21.60;60.80;;;;;;4955103;28;20435;-72
2022/04/23 01:32:38;;;;;;;16.63;5.60;;;21.60;60.60;;;;;;4951284;29;20024;-72
2022/04/23 01:35:05;;;;;;;11.82;5.28;;;21.60;60.50;;;;;;4937312;29;20035;-72
2022/04/23 01:37:31;;;;;;;9.23;5.03;;;21.60;60.30;;;;;;4937978;29;20023;-72
2022/04/23 01:39:57;;;;;;;10.52;5.20;;;21.60;60.40;;;;;;4951704;28;20419;-72
2022/04/23 01:42:22;;;;;;;10.55;5.40;;;21.60;60.20;;;;;;4941955;29;20028;-72
2022/04/23 01:44:50;;;;;;;10.13;5.03;;;21.60;60.20;;;;;;4953636;28;20103;-72
2022/04/23 01:47:17;;;;;;;9.00;4.72;;;21.60;60.20;;;;;;4954398;28;20357;-72
2022/04/23 01:49:44;;;;;;;10.75;5.30;;;21.60;60.20;;;;;;4946355;29;20035;-72
2022/04/23 01:52:10;;;;;;;11.38;5.22;;;21.60;60.10;;;;;;4947875;29;20031;-72
2022/04/23 01:54:37;;;;;;;10.50;4.55;;;21.60;60.40;;;;;;4952929;29;20035;-72
2022/04/23 01:57:03;;;;;;;8.68;4.70;;;21.60;60.00;;;;;;4953128;29;20102;-71
2022/04/23 01:59:30;;;;;;;8.60;4.97;;;21.60;60.10;;;;;;4953362;29;20126;-72
2022/04/23 02:01:56;;;;;;;9.18;4.75;;;21.60;60.10;;;;;;4948307;28;20042;-72
2022/04/23 02:04:22;;;;;;;7.85;4.85;;;21.60;60.20;;;;;;4952778;29;20062;-72
2022/04/23 02:06:48;;;;;;;10.75;4.85;;;21.60;60.10;;;;;;4954157;28;20061;-72
2022/04/23 02:09:14;;;;;;;8.38;4.90;;;21.60;59.90;;;;;;4953407;28;20425;-72
2022/04/23 02:11:40;;;;;;;11.38;5.05;;;21.60;60.00;;;;;;4954281;28;20062;-72
2022/04/23 02:14:06;;;;;;;10.15;4.93;;;21.60;59.90;;;;;;4949146;28;20039;-72
2022/04/23 02:16:32;;;;;;;8.27;4.72;;;21.60;59.80;;;;;;4946415;28;20102;-72
2022/04/23 02:18:58;;;;;;;9.98;4.57;;;21.60;60.00;;;;;;4947392;29;20039;-72
2022/04/23 02:21:25;;;;;;;9.57;4.50;;;21.60;59.80;;;;;;4937579;29;20028;-72
2022/04/23 02:23:54;;;;;;;9.90;4.80;;;21.70;59.60;;;;;;4945309;29;20071;-72
2022/04/23 02:26:21;;;;;;;7.60;4.50;;;21.70;59.70;;;;;;4952856;29;20484;-72
2022/04/23 02:28:47;;;;;;;9.77;4.28;;;21.70;60.10;;;;;;4953778;28;20127;-71
2022/04/23 02:31:13;;;;;;;8.13;4.38;;;21.70;59.60;;;;;;4952523;28;20042;-71
2022/04/23 02:33:39;;;;;;;8.90;4.55;;;21.60;59.50;;;;;;4951878;29;20027;-72
2022/04/23 02:36:06;;;;;;;8.20;4.70;;;21.60;59.40;;;;;;4952682;29;20503;-72
2022/04/23 02:38:33;;;;;;;8.40;4.70;;;21.60;60.00;;;;;;4949680;29;20499;-71
2022/04/23 02:40:59;;;;;;;8.88;4.63;;;21.60;60.00;;;;;;4932281;29;20440;-72
2022/04/23 02:43:24;;;;;;;9.25;5.05;;;21.60;59.50;;;;;;4952167;29;20070;-71
2022/04/23 02:45:50;;;;;;;8.85;4.43;;;21.60;59.80;;;;;;4945571;28;20027;-72
2022/04/23 02:48:16;;;;;;;12.07;5.05;;;21.60;59.60;;;;;;4945803;28;20042;-71
2022/04/23 02:50:42;;;;;;;9.02;4.63;;;21.60;59.60;;;;;;4946451;29;20035;-72
2022/04/23 02:53:08;;;;;;;8.43;4.68;;;21.60;59.60;;;;;;4953348;28;20123;-72
2022/04/23 02:55:36;;;;;;;8.82;4.65;;;21.60;59.80;;;;;;4936461;29;20032;-71
2022/04/23 02:58:10;;;;;;;6.85;4.20;;;21.60;59.70;;;;;;4935748;29;20133;-72
2022/04/23 03:00:38;;;;;;;8.27;4.72;;;21.60;59.50;;;;;;4950200;28;20328;-71
2022/04/23 03:03:05;;;;;;;7.68;4.50;;;21.60;59.80;;;;;;4946138;28;20023;-71
2022/04/23 03:05:31;;;;;;;6.82;4.40;;;21.60;59.60;;;;;;4944843;28;20024;-72
2022/04/23 03:08:00;;;;;;;9.88;4.30;;;21.60;59.60;;;;;;4952402;29;20118;-72
2022/04/23 03:10:30;;;;;;;7.35;4.15;;;21.60;59.60;;;;;;4953368;28;20039;-72
2022/04/23 03:12:57;;;;;;;;;;;21.60;59.60;;;;;;4948192;29;20610;-71
2022/04/23 03:15:24;;;;;;;8.20;4.15;;;21.60;59.50;;;;;;4950025;29;19918;-71
2022/04/23 03:17:50;;;;;;;7.03;4.05;;;21.60;59.20;;;;;;4947140;28;20038;-71
2022/04/23 03:20:16;;;;;;;6.30;3.67;;;21.60;59.40;;;;;;4944903;23;20052;-74
2022/04/23 03:22:43;;;;;;;7.78;4.50;;;21.60;59.20;;;;;;4898160;29;20087;-74
2022/04/23 03:25:10;;;;;;;7.18;4.05;;;21.70;59.30;;;;;;4918719;29;20093;-74
2022/04/23 03:27:36;;;;;;;9.68;4.63;;;21.60;59.20;;;;;;4915831;29;20095;-74
2022/04/23 03:30:04;;;;;;;7.60;4.15;;;21.60;59.10;;;;;;4905944;29;20393;-75
2022/04/23 03:32:31;;;;;;;7.25;4.13;;;21.60;59.20;;;;;;4908561;29;20393;-74
2022/04/23 03:34:59;;;;;;;7.90;3.97;;;21.60;59.10;;;;;;4906756;29;20036;-74
2022/04/23 03:37:25;;;;;;;7.05;3.90;;;21.60;59.70;;;;;;4914999;29;20043;-74
2022/04/23 03:39:51;;;;;;;7.00;3.90;;;21.60;60.00;;;;;;4908161;29;20028;-74
2022/04/23 03:42:16;;;;;;;6.50;3.95;;;21.70;59.50;;;;;;4906325;29;20643;-74
2022/04/23 03:44:42;;;;;;;7.45;4.10;;;21.60;59.30;;;;;;4895823;29;20021;-74
2022/04/23 03:47:08;;;;;;;5.57;3.78;;;21.60;59.80;;;;;;4896017;29;20029;-74
2022/04/23 03:49:33;;;;;;;7.00;4.00;;;21.60;59.00;;;;;;4910347;29;20127;-74
2022/04/23 03:52:02;;;;;;;7.65;3.95;;;21.60;59.30;;;;;;4910019;29;20152;-75
2022/04/23 03:54:28;;;;;;;7.32;4.00;;;21.60;59.10;;;;;;4902616;29;20048;-74
2022/04/23 03:56:53;;;;;;;8.10;4.00;;;21.60;59.20;;;;;;4912402;29;20029;-74
2022/04/23 03:59:21;;;;;;;6.45;3.67;;;21.60;59.00;;;;;;4911248;29;20110;-74
2022/04/23 04:01:47;;;;;;;7.75;4.00;;;21.60;59.30;;;;;;4914697;29;20110;-74
2022/04/23 04:04:16;;;;;;;6.93;3.90;;;21.60;59.00;;;;;;4912263;29;20084;-74
2022/04/23 04:06:42;;;;;;;7.80;4.23;;;21.60;59.00;;;;;;4921803;29;20084;-74
2022/04/23 04:09:08;;;;;;;6.53;3.63;;;21.60;59.10;;;;;;4909034;29;20652;-74
2022/04/23 04:14:19;;;;;;;5.63;3.60;;;21.60;59.30;;;;;;4910054;29;20028;-74
2022/04/23 04:16:46;;;;;;;6.80;3.90;;;21.60;59.00;;;;;;4913403;29;20378;-74
2022/04/23 04:19:15;;;;;;;5.43;4.00;;;21.60;58.90;;;;;;4904346;29;20024;-74
2022/04/23 04:21:47;;;;;;;8.13;4.22;;;21.60;58.90;;;;;;4908942;29;20103;-75
2022/04/23 04:24:13;;;;;;;7.45;3.67;;;21.60;58.70;;;;;;4909914;29;20025;-74
2022/04/23 04:26:40;;;;;;;7.15;4.30;;;21.60;58.60;;;;;;4942484;29;20079;-74
2022/04/23 04:29:07;;;;;;;6.47;4.03;;;21.60;59.00;;;;;;4909691;29;20036;-74
2022/04/23 04:31:49;;;;;;;7.45;3.92;;;21.60;58.80;;;;;;4909961;29;20080;-74
2022/04/23 04:34:17;;;;;;;6.20;3.72;;;21.60;58.60;;;;;;4937880;29;20028;-75
2022/04/23 04:36:43;;;;;;;5.70;3.88;;;21.60;58.50;;;;;;4890938;29;20079;-75
2022/04/23 04:39:09;;;;;;;7.57;4.07;;;21.60;59.30;;;;;;4904745;29;20038;-75
2022/04/23 04:41:38;;;;;;;5.90;4.10;;;21.60;58.70;;;;;;4907980;29;20448;-75
2022/04/23 04:44:06;;;;;;;7.55;3.80;;;21.60;58.70;;;;;;4917529;29;20020;-75
2022/04/23 04:46:33;;;;;;;7.50;3.92;;;21.60;58.60;;;;;;4932411;29;20109;-75
2022/04/23 04:49:01;;;;;;;6.03;3.80;;;21.60;58.60;;;;;;4948499;29;20035;-75
2022/04/23 04:51:26;;;;;;;7.80;3.63;;;21.60;58.80;;;;;;4911619;29;20067;-75
2022/04/23 04:53:52;;;;;;;6.57;3.97;;;21.60;58.60;;;;;;4910187;29;20063;-74
2022/04/23 04:56:18;;;;;;;7.18;3.75;;;21.60;58.50;;;;;;4917458;29;20028;-74
2022/04/23 04:58:44;;;;;;;6.70;3.95;;;21.60;58.80;;;;;;4906115;29;20100;-75
2022/04/23 05:01:10;;;;;;;8.10;4.10;;;21.60;59.20;;;;;;4904681;29;20485;-75
2022/04/23 05:03:36;;;;;;;7.95;4.68;;;21.60;58.30;;;;;;4904584;29;20036;-75
2022/04/23 05:06:02;;;;;;;7.82;3.40;;;21.60;59.30;;;;;;4905281;29;20024;-75
2022/04/23 05:08:27;;;;;;;7.13;4.28;;;21.60;58.80;;;;;;4914641;29;20079;-75
2022/04/23 05:10:53;;;;;;;7.50;3.97;;;21.60;58.70;;;;;;4917430;29;20040;-75
2022/04/23 05:13:19;;;;;;;5.63;3.90;;;21.60;58.40;;;;;;4931843;29;20526;-75
2022/04/23 05:15:45;;;;;;;5.80;3.85;;;21.60;58.70;;;;;;4911050;29;20028;-75
2022/04/23 05:18:11;;;;;;;5.47;3.40;;;21.60;58.50;;;;;;4896805;29;20040;-75
2022/04/23 05:20:36;;;;;;;7.70;3.45;;;21.60;58.80;;;;;;4895984;29;20028;-76
2022/04/23 05:23:02;;;;;;;9.18;4.30;;;21.60;58.50;;;;;;4897812;29;20103;-76
2022/04/23 05:25:28;;;;;;;6.38;3.80;;;21.60;58.40;;;;;;4912507;29;20028;-76
2022/04/23 05:27:54;;;;;;;6.95;4.20;;;21.60;58.30;;;;;;4904414;29;20486;-75
2022/04/23 05:30:19;;;;;;;8.90;3.88;;;21.60;58.40;;;;;;4903194;29;20400;-76
2022/04/23 05:32:45;;;;;;;6.47;3.90;;;21.60;58.20;;;;;;4923232;29;20417;-75
2022/04/23 05:35:11;;;;;;;9.18;3.95;;;21.60;58.20;;;;;;4916823;29;20040;-75
2022/04/23 05:37:37;;;;;;;6.97;3.90;;;21.60;58.10;;;;;;4947342;29;20028;-76
2022/04/23 05:40:03;;;;;;;5.68;3.78;;;21.60;58.50;;;;;;4909937;29;20040;-76
2022/04/23 05:42:28;;;;;;;6.53;4.03;;;21.60;58.00;;;;;;4906846;29;20033;-76
2022/04/23 05:44:54;;;;;;;5.60;3.75;;;21.60;58.10;;;;;;4897691;29;20073;-76
2022/04/23 05:47:20;;;;;;;7.82;4.10;;;21.60;58.10;;;;;;4906352;29;20033;-76
2022/04/23 05:49:46;;;;;;;7.57;4.15;;;21.60;57.90;;;;;;4904250;29;20025;-76
2022/04/23 05:52:12;;;;;;;5.78;3.80;;;21.60;57.80;;;;;;4898095;29;20028;-76
2022/04/23 05:54:37;;;;;;;8.45;3.83;;;21.60;57.90;;;;;;4907565;29;20528;-76
2022/04/23 05:57:03;;;;;;;7.63;4.30;;;21.60;58.00;;;;;;4912418;29;20024;-76
2022/04/23 05:59:31;;;;;;;6.60;3.90;;;21.60;58.00;;;;;;4906001;29;20028;-76
2022/04/23 06:01:57;;;;;;;6.68;3.83;;;21.60;57.90;;;;;;4916212;29;20047;-75
2022/04/23 06:04:23;;;;;;;8.63;4.10;;;21.60;57.70;;;;;;4935394;29;20028;-75
2022/04/23 06:06:49;;;;;;;6.45;3.85;;;21.60;57.70;;;;;;4934120;29;20088;-75
2022/04/23 06:09:15;;;;;;;9.50;3.50;;;21.60;57.70;;;;;;4905911;29;20032;-75
2022/04/23 06:11:40;;;;;;;8.63;4.07;;;21.60;58.00;;;;;;4907093;29;20426;-74
2022/04/23 06:14:06;;;;;;;5.85;3.83;;;21.60;57.70;;;;;;4907953;29;20099;-75
2022/04/23 06:16:32;;;;;;;5.28;3.65;;;21.60;57.70;;;;;;4915484;29;20032;-75
2022/04/23 06:18:57;;;;;;;7.07;3.90;;;21.60;57.70;;;;;;4908064;29;20033;-75
2022/04/23 06:21:23;;;;;;;7.63;3.90;;;21.60;57.70;;;;;;4904717;29;20040;-75
2022/04/23 06:23:49;;;;;;;6.63;3.65;;;21.60;57.50;;;;;;4915589;29;20028;-75
2022/04/23 06:26:14;;;;;;;7.90;3.70;;;21.70;57.50;;;;;;4909025;29;20059;-76
2022/04/23 06:28:40;;;;;;;6.68;4.28;;;21.70;59.00;;;;;;4907697;29;20039;-75
2022/04/23 06:31:06;;;;;;;6.00;4.07;;;21.70;57.80;;;;;;4914759;29;20081;-75
2022/04/23 06:33:32;;;;;;;8.73;4.28;;;21.70;58.50;;;;;;4903663;29;20390;-75
2022/04/23 06:35:58;;;;;;;14.52;4.20;;;21.70;59.00;;;;;;4907953;29;20028;-75
2022/04/23 06:38:24;;;;;;;7.57;4.07;;;21.70;59.20;;;;;;4900331;29;20065;-75
2022/04/23 06:40:51;;;;;;;9.52;3.50;;;21.70;59.40;;;;;;4905447;29;20036;-75
2022/04/23 06:43:17;;;;;;;8.30;3.83;;;21.60;59.70;;;;;;4876012;29;20033;-74
2022/04/23 06:45:44;;;;;;;5.75;3.80;;;21.70;59.70;;;;;;4905851;29;20055;-75
2022/04/23 06:48:10;;;;;;;6.68;3.63;;;21.70;59.90;;;;;;4900497;29;20112;-75
2022/04/23 06:50:36;;;;;;;6.82;3.85;;;21.70;60.00;;;;;;4903082;29;20021;-75
2022/04/23 06:53:03;;;;;;;8.00;3.70;;;21.70;60.40;;;;;;4896596;29;20028;-75
2022/04/23 06:55:30;;;;;;;6.72;3.63;;;21.70;60.50;;;;;;4898240;29;20092;-75
2022/04/23 06:57:56;;;;;;;5.47;3.65;;;21.70;60.70;;;;;;4903641;29;20457;-75
2022/04/23 07:00:22;;;;;;;8.50;3.88;;;21.70;60.80;;;;;;4910269;29;20036;-75
2022/04/23 07:02:51;;;;;;;9.32;3.60;;;21.70;60.90;;;;;;4898146;29;20040;-75
2022/04/23 07:05:17;;;;;;;11.43;3.60;;;21.70;60.60;;;;;;4896207;29;20112;-75
2022/04/23 07:08:02;;;;;;;9.90;4.05;;;21.70;60.70;;;;;;4897638;29;20489;-75
2022/04/23 07:10:29;;;;;;;10.95;4.28;;;21.80;61.10;;;;;;4918793;29;20040;-74
2022/04/23 07:12:56;;;;;;;8.55;4.35;;;21.80;59.80;;;;;;4908080;29;20039;-75
2022/04/23 07:15:23;;;;;;;8.95;3.90;;;21.80;60.50;;;;;;4938696;29;20367;-74
2022/04/23 07:17:49;;;;;;;11.23;4.40;;;21.90;60.40;;;;;;4896503;29;20088;-76
2022/04/23 07:20:16;;;;;;;11.68;4.78;;;21.90;60.70;;;;;;4896125;29;20032;-75
2022/04/23 07:25:26;;;;;;;15.30;4.97;;;22.00;60.60;;;;;;4901442;29;20366;-75
2022/04/23 07:27:52;;;;;;;13.30;5.65;;;22.00;60.50;;;;;;4904348;29;20076;-74
2022/04/23 07:30:18;;;;;;;11.32;5.95;;;22.00;60.50;;;;;;4919182;29;20029;-75
2022/04/23 07:32:43;;;;;;;12.32;6.80;;;22.00;60.00;;;;;;4910162;29;20458;-77
2022/04/23 07:37:53;;;;;;;17.33;7.43;;;22.00;58.80;;;;;;4886189;29;20414;-75
2022/04/23 07:40:19;;;;;;;14.57;7.13;;;22.00;58.80;;;;;;4893456;29;20033;-75
2022/04/23 07:42:45;;;;;;;14.13;7.03;;;22.00;58.80;;;;;;4896301;29;20044;-76
2022/04/23 07:45:10;;;;;;;11.43;5.80;;;22.00;59.00;;;;;;4898716;29;20108;-75
2022/04/23 07:47:36;;;;;;;15.18;5.70;;;22.00;59.90;;;;;;4899867;29;20486;-77
2022/04/23 07:50:04;;;;;;;13.63;5.70;;;22.00;60.20;;;;;;4882960;29;20052;-77
2022/04/23 07:52:34;;;;;;;15.05;6.38;;;22.10;60.30;;;;;;4899064;29;20036;-78
2022/04/23 07:55:00;;;;;;;23.40;6.55;;;22.10;59.90;;;;;;4885820;29;20032;-78
2022/04/23 07:57:26;;;;;;;19.60;6.55;;;22.20;59.90;;;;;;4907281;29;20051;-79
2022/04/23 07:59:52;;;;;;;19.58;6.25;;;22.20;60.30;;;;;;4899929;29;20478;-79
2022/04/23 08:02:18;;;;;;;17.70;5.88;;;22.20;60.90;;;;;;4914050;29;20051;-78
2022/04/23 08:04:44;;;;;;;24.23;6.68;;;22.20;60.30;;;;;;4898149;29;20629;-78
2022/04/23 08:07:10;;;;;;;14.75;6.70;;;22.30;61.00;;;;;;4907112;29;20024;-75
2022/04/23 08:09:39;;;;;;;18.55;6.68;;;22.20;60.90;;;;;;4913144;29;20028;-75
2022/04/23 08:12:09;;;;;;;17.30;6.82;;;22.10;57.30;;;;;;4915757;29;20038;-75
2022/04/23 08:14:35;;;;;;;15.00;7.07;;;22.00;57.70;;;;;;4902714;29;20032;-76
2022/04/23 08:17:01;;;;;;;28.58;17.77;;;21.90;53.70;;;;;;4908926;29;20108;-74
2022/04/23 08:19:27;;;;;;;37.72;22.17;;;21.80;51.40;;;;;;4914897;29;20032;-74
2022/04/23 08:21:53;;;;;;;34.85;24.20;;;21.80;52.60;;;;;;4918321;29;20032;-74
2022/04/23 08:24:21;;;;;;;42.92;26.10;;;21.80;51.30;;;;;;4905307;29;20031;-75
2022/04/23 08:26:49;;;;;;;34.53;21.75;;;21.80;50.80;;;;;;4899424;29;20048;-79
2022/04/23 08:31:59;;;;;;;27.83;17.45;;;21.80;48.90;;;;;;4880157;29;20041;-76
2022/04/23 08:34:25;;;;;;;28.90;18.33;;;21.80;49.30;;;;;;4878762;29;20474;-76
2022/04/23 08:36:51;;;;;;;24.20;16.20;;;21.80;48.90;;;;;;4893985;29;20033;-76
2022/04/23 08:39:16;;;;;;;26.90;17.10;;;21.80;49.30;;;;;;4880274;29;20068;-76
2022/04/23 08:41:45;;;;;;;25.92;17.23;;;21.90;49.50;;;;;;4910388;29;20347;-75
2022/04/23 08:44:11;;;;;;;27.17;16.35;;;21.90;49.60;;;;;;4880396;29;20033;-76
2022/04/23 08:46:38;;;;;;;24.33;15.80;;;21.90;50.00;;;;;;4914906;29;20036;-76
2022/04/23 08:49:10;;;;;;;28.30;16.75;;;21.90;50.30;;;;;;4917534;29;20017;-76
2022/04/23 08:51:38;;;;;;;22.45;15.57;;;21.90;50.60;;;;;;4884979;29;20044;-76
2022/04/23 08:54:14;;;;;;;25.85;16.50;;;21.90;51.00;;;;;;4916674;29;20033;-76
2022/04/23 08:56:42;;;;;;;21.55;15.35;;;21.90;51.20;;;;;;4915863;29;20028;-76
2022/04/23 08:59:12;;;;;;;21.98;15.57;;;21.90;51.50;;;;;;4916290;29;20032;-76
2022/04/23 09:01:38;;;;;;;21.95;15.48;;;21.90;51.70;;;;;;4917410;29;20127;-76
2022/04/23 09:04:06;;;;;;;22.80;15.20;;;21.90;52.00;;;;;;4917198;29;20032;-76
2022/04/23 09:06:37;;;;;;;23.77;15.18;;;21.90;52.10;;;;;;4916447;29;20163;-75
2022/04/23 09:09:19;;;;;;;21.77;15.40;;;21.90;52.30;;;;;;4900637;29;20024;-76
2022/04/23 09:11:48;;;;;;;23.98;15.60;;;21.90;52.50;;;;;;4916045;29;20032;-76
2022/04/23 09:14:23;;;;;;;21.58;14.43;;;21.90;52.60;;;;;;4916990;29;20036;-76
2022/04/23 09:25:10;;;;;;;21.33;14.10;;;21.90;53.00;;;;;;4887058;29;20453;-75
2022/04/23 09:27:42;;;;;;;23.20;13.60;;;22.00;53.20;;;;;;4900567;29;20115;-76
2022/04/23 09:30:09;;;;;;;22.35;15.10;;;21.90;53.20;;;;;;4916941;29;20036;-76
2022/04/23 09:32:36;;;;;;;25.58;15.18;;;21.90;53.30;;;;;;4916242;29;20448;-77
2022/04/23 09:35:05;;;;;;;20.05;14.13;;;21.90;53.40;;;;;;4916734;29;20039;-76
2022/04/23 09:40:34;;;;;;;20.02;14.40;;;21.90;53.60;;;;;;4931266;29;20272;-76
2022/04/23 09:43:01;;;;;;;17.73;13.20;;;21.90;53.70;;;;;;4915558;29;20032;-76
2022/04/23 09:45:29;;;;;;;18.40;13.85;;;21.90;53.60;;;;;;4900225;29;20039;-76
2022/04/23 09:47:56;;;;;;;19.65;13.35;;;21.90;53.70;;;;;;4916827;29;20071;-75
2022/04/23 09:50:23;;;;;;;19.08;13.75;;;21.90;53.70;;;;;;4915417;29;20615;-76
2022/04/23 09:52:51;;;;;;;17.67;13.27;;;21.90;53.90;;;;;;4914798;29;20036;-77
2022/04/23 09:55:20;;;;;;;19.15;13.82;;;21.90;53.90;;;;;;4916819;29;20107;-76
2022/04/23 09:57:47;;;;;;;18.15;12.82;;;21.90;53.90;;;;;;4916499;29;20024;-76
2022/04/23 10:00:13;;;;;;;21.08;13.52;;;21.90;53.90;;;;;;4916432;29;20031;-76
2022/04/23 10:02:41;;;;;;;18.48;13.02;;;21.90;54.00;;;;;;4916409;29;20029;-76
2022/04/23 10:05:11;;;;;;;16.80;12.02;;;21.90;54.10;;;;;;4916169;29;20024;-77
2022/04/23 10:07:41;;;;;;;17.02;12.10;;;21.90;54.10;;;;;;4915984;29;20482;-76
2022/04/23 10:10:10;;;;;;;18.30;13.15;;;21.90;54.00;;;;;;4916500;29;20020;-76
2022/04/23 10:12:38;;;;;;;17.38;13.23;;;21.90;54.10;;;;;;4915091;29;20035;-76
2022/04/23 10:15:05;;;;;;;17.45;11.93;;;21.90;54.20;;;;;;4915962;29;20115;-75
2022/04/23 10:17:31;;;;;;;18.38;12.88;;;22.00;54.20;;;;;;4916096;29;20035;-75
2022/04/23 10:19:59;;;;;;;17.88;12.55;;;22.00;54.20;;;;;;4914746;29;20433;-77
2022/04/23 10:22:39;;;;;;;19.92;12.52;;;22.00;54.30;;;;;;4916000;29;20032;-76
2022/04/23 10:25:17;;;;;;;19.85;12.30;;;21.90;54.20;;;;;;4916394;29;20390;-76
2022/04/23 10:27:44;;;;;;;19.08;12.27;;;22.00;54.30;;;;;;4915877;29;20474;-75
2022/04/23 10:30:12;;;;;;;19.85;11.60;;;22.00;54.20;;;;;;4914397;29;20036;-76
2022/04/23 10:32:40;;;;;;;18.38;12.88;;;22.00;54.30;;;;;;4914574;29;20028;-76
2022/04/23 10:35:18;;;;;;;17.10;12.13;;;22.00;54.40;;;;;;4915934;29;20035;-76
2022/04/23 10:37:48;;;;;;;17.52;12.00;;;22.00;54.40;;;;;;4898962;29;20477;-76
2022/04/23 10:40:17;;;;;;;16.42;11.85;;;21.90;54.40;;;;;;4916045;29;20333;-77
2022/04/23 10:43:09;;;;;;;18.07;12.07;;;21.90;54.40;;;;;;4915615;29;20066;-78
2022/04/23 10:45:36;;;;;;;14.65;11.07;;;21.90;54.40;;;;;;4915705;29;20052;-77
2022/04/23 10:48:33;;;;;;;17.05;11.85;;;22.00;54.50;;;;;;4914507;29;20472;-77
2022/04/23 10:51:15;;;;;;;16.17;11.95;;;22.00;54.60;;;;;;4910399;29;20047;-77
2022/04/23 10:53:41;;;;;;;15.90;11.27;;;21.90;54.50;;;;;;4898515;29;20095;-77
2022/04/23 10:56:20;;;;;;;17.05;11.77;;;21.90;54.60;;;;;;4898521;29;20067;-76
2022/04/23 10:58:47;;;;;;;17.20;12.05;;;21.90;54.60;;;;;;4914565;29;20055;-76
2022/04/23 11:01:22;;;;;;;16.48;11.68;;;21.90;54.60;;;;;;4915445;29;20043;-76
2022/04/23 11:04:06;;;;;;;16.30;11.30;;;21.90;54.60;;;;;;4915478;29;20080;-76
2022/04/23 11:12:19;;;;;;;16.05;10.82;;;21.90;54.60;;;;;;4915571;29;20604;-76
2022/04/23 11:14:46;;;;;;;17.70;11.25;;;21.90;54.70;;;;;;4913862;29;20397;-76
2022/04/23 11:17:12;;;;;;;16.63;11.70;;;21.90;54.70;;;;;;4913552;29;20032;-76
2022/04/23 11:19:42;;;;;;;16.10;10.70;;;22.00;54.80;;;;;;4914813;29;20135;-76
2022/04/23 11:22:11;;;;;;;15.88;10.98;;;21.90;54.70;;;;;;4915120;29;20080;-76
2022/04/23 11:24:37;;;;;;;14.40;9.77;;;21.90;54.70;;;;;;4915065;29;20086;-76
2022/04/23 11:27:03;;;;;;;15.05;10.90;;;21.90;54.70;;;;;;4913879;29;20032;-77
2022/04/23 11:29:29;;;;;;;14.93;10.50;;;21.90;54.60;;;;;;4915141;29;20024;-76
2022/04/23 11:31:58;;;;;;;14.50;10.55;;;21.90;54.70;;;;;;4915007;29;20408;-76
2022/04/23 11:34:24;;;;;;;14.23;10.02;;;21.90;54.80;;;;;;4914922;29;20083;-76
2022/04/23 11:36:51;;;;;;;16.95;11.10;;;22.00;54.80;;;;;;4914805;29;20036;-76
2022/04/23 11:39:17;;;;;;;14.38;10.48;;;21.90;54.80;;;;;;4913986;29;20032;-76
2022/04/23 11:41:48;;;;;;;15.05;10.60;;;21.90;54.80;;;;;;4914933;29;20055;-76
2022/04/23 11:47:04;;;;;;;15.50;10.77;;;21.90;54.90;;;;;;4914927;29;20265;-76
2022/04/23 11:49:31;;;;;;;15.95;10.38;;;21.90;54.90;;;;;;4897969;29;20485;-76
2022/04/23 11:52:08;;;;;;;14.77;9.60;;;21.90;54.90;;;;;;4913595;29;20024;-76
2022/04/23 11:54:38;;;;;;;15.75;10.57;;;21.90;54.90;;;;;;4914756;29;20478;-76
2022/04/23 11:57:07;;;;;;;14.38;9.65;;;21.90;54.80;;;;;;4914850;29;20035;-75
2022/04/23 11:59:40;;;;;;;15.13;9.93;;;21.90;54.80;;;;;;4913745;29;20556;-75
2022/04/23 12:02:15;;;;;;;15.98;9.77;;;21.90;54.90;;;;;;4914628;29;20476;-76
2022/04/23 12:04:42;;;;;;;15.07;10.40;;;21.90;54.80;;;;;;4914633;29;20083;-76
2022/04/23 12:07:07;;;;;;;14.38;9.57;;;21.80;54.80;;;;;;4913797;29;20032;-76
2022/04/23 12:09:44;;;;;;;13.52;9.60;;;21.90;54.80;;;;;;4913872;29;20035;-75
2022/04/23 12:12:09;;;;;;;14.20;9.48;;;21.90;54.80;;;;;;4914685;29;20039;-75
2022/04/23 12:14:57;;;;;;;16.63;10.00;;;21.90;54.80;;;;;;4914488;29;20040;-76
2022/04/23 12:17:31;;;;;;;13.15;9.30;;;21.90;54.70;;;;;;4912063;29;20061;-76
2022/04/23 12:20:09;;;;;;;13.10;9.10;;;21.90;54.70;;;;;;4913342;29;20071;-75
2022/04/23 12:22:34;;;;;;;13.52;9.02;;;21.90;54.70;;;;;;4913021;29;20036;-75
2022/04/23 12:25:09;;;;;;;13.15;9.05;;;21.90;54.60;;;;;;4912920;29;20038;-76
2022/04/23 12:27:57;;;;;;;14.48;9.75;;;21.90;54.60;;;;;;4914683;29;20028;-75
2022/04/23 12:42:10;;;;;;;14.05;8.80;;;21.80;54.60;;;;;;4918199;29;20523;-75
2022/04/23 12:44:41;;;;;;;13.82;9.30;;;21.80;54.50;;;;;;4905235;29;20489;-75
2022/04/23 12:47:16;;;;;;;12.48;8.57;;;21.80;54.60;;;;;;4897793;29;20482;-75
2022/04/23 12:49:44;;;;;;;13.05;9.45;;;21.90;54.50;;;;;;4929050;29;20059;-75
2022/04/23 12:52:21;;;;;;;12.23;8.70;;;21.90;54.50;;;;;;4898828;29;20110;-76
2022/04/23 12:55:17;;;;;;;12.98;8.73;;;21.90;54.60;;;;;;4881783;29;20036;-75
2022/04/23 12:57:50;;;;;;;12.93;9.13;;;21.90;54.60;;;;;;4897488;29;20036;-75
2022/04/23 13:00:18;;;;;;;12.80;8.88;;;21.90;54.60;;;;;;4898384;29;20043;-75
2022/04/23 13:02:47;;;;;;;13.88;9.27;;;21.90;54.60;;;;;;4898541;29;20029;-75
2022/04/23 13:05:14;;;;;;;12.70;8.60;;;21.90;54.60;;;;;;4897460;29;20041;-75
2022/04/23 13:10:24;;;;;;;13.27;8.50;;;21.90;54.60;;;;;;4898507;29;20111;-75
2022/04/23 13:12:50;;;;;;;12.88;8.88;;;21.90;54.70;;;;;;4897125;29;20123;-75
2022/04/23 13:15:16;;;;;;;13.15;8.90;;;21.90;54.60;;;;;;4897522;29;20025;-75
2022/04/23 13:17:43;;;;;;;14.35;8.38;;;21.90;54.60;;;;;;4898608;29;20371;-75
2022/04/23 13:20:10;;;;;;;14.82;8.63;;;21.90;54.50;;;;;;4898103;29;20084;-75
2022/04/23 13:22:37;;;;;;;13.15;8.40;;;21.90;54.60;;;;;;4898302;29;20036;-75
2022/04/23 13:25:04;;;;;;;13.00;8.38;;;21.90;54.60;;;;;;4896715;29;20088;-75
2022/04/23 13:27:30;;;;;;;13.27;9.15;;;21.90;54.60;;;;;;4898209;29;20028;-75